Time;durP1;ratioP1;P1;durP2;ratioP2;P2;SDS_P1;SDS_P2;PMS_P1;PMS_P2;Temp;Humidity;BMP_temperature;BMP_pressure;BME280_temperature;BME280_humidity;BME280_pressure;Samples;Min_cycle;Max_cycle;Signal;HPM_P1;HPM_P2
2021/11/16 00:01:55;;;;;;;;;;;;;;;5.19;63.38;102569.50;126361;1099;104011;-81
2021/11/16 00:04:26;;;;;;;36.13;18.97;;;;;;;5.23;63.36;102578.48;126236;1098;103922;-82
2021/11/16 00:06:58;;;;;;;37.23;19.47;;;;;;;5.28;63.37;102573.70;125227;1099;103958;-81
2021/11/16 00:09:30;;;;;;;36.07;19.27;;;;;;;5.32;63.42;102581.92;126193;1099;104121;-81
2021/11/16 00:12:02;;;;;;;34.87;18.63;;;;;;;5.34;63.71;102584.66;126231;1099;104037;-80
2021/11/16 00:14:34;;;;;;;38.07;19.37;;;;;;;5.29;63.18;102575.54;126243;1099;103947;-81
2021/11/16 00:17:06;;;;;;;35.60;17.20;;;;;;;5.31;63.69;102584.39;126209;1099;104120;-82
2021/11/16 00:19:39;;;;;;;36.73;19.03;;;;;;;5.26;63.35;102581.38;125807;1099;104195;-81
2021/11/16 00:22:16;;;;;;;36.07;19.73;;;;;;;5.21;63.29;102585.26;126250;1099;103923;-81
2021/11/16 00:25:07;;;;;;;37.37;20.53;;;;;;;5.14;63.32;102581.20;126220;1099;104642;-80
2021/11/16 00:27:39;;;;;;;36.33;20.23;;;;;;;5.12;63.60;102581.81;125305;1099;104079;-81
2021/11/16 00:30:12;;;;;;;36.17;19.13;;;;;;;5.13;63.91;102583.66;126115;1099;103941;-81
2021/11/16 00:32:44;;;;;;;37.00;18.53;;;;;;;5.14;63.65;102581.20;126183;1099;104066;-81
2021/11/16 00:35:16;;;;;;;37.03;18.63;;;;;;;5.18;63.68;102579.77;125354;1099;104284;-81
2021/11/16 00:37:48;;;;;;;35.10;17.93;;;;;;;5.16;63.61;102571.83;126382;1099;103945;-82
2021/11/16 00:40:21;;;;;;;31.67;15.97;;;;;;;5.15;63.17;102576.89;126324;1099;104401;-81
2021/11/16 00:42:53;;;;;;;34.93;18.13;;;;;;;5.13;63.37;102573.25;126350;1099;103923;-79
2021/11/16 00:45:26;;;;;;;32.87;18.03;;;;;;;5.15;63.05;102576.89;126339;1099;103915;-81
2021/11/16 00:47:58;;;;;;;34.65;17.60;;;;;;;5.14;63.39;102575.05;126342;1099;103923;-81
2021/11/16 00:50:30;;;;;;;35.43;18.10;;;;;;;5.06;63.64;102579.56;126286;1099;103916;-83
2021/11/16 00:53:04;;;;;;;36.17;17.30;;;;;;;5.02;63.17;102577.47;126386;1098;104365;-82
2021/11/16 00:55:36;;;;;;;35.70;17.37;;;;;;;4.97;63.71;102578.72;126363;1099;103970;-82
2021/11/16 00:58:12;;;;;;;34.78;18.10;;;;;;;4.95;63.42;102573.38;126340;1099;104021;-82
2021/11/16 01:00:47;;;;;;;35.30;17.87;;;;;;;4.90;63.47;102582.45;126305;1099;104370;-82
2021/11/16 01:03:21;;;;;;;35.37;18.07;;;;;;;4.84;63.14;102566.28;126329;1099;104015;-82
2021/11/16 01:05:58;;;;;;;33.08;17.90;;;;;;;4.76;63.65;102570.77;126337;1099;104015;-81
2021/11/16 01:08:42;;;;;;;32.20;16.93;;;;;;;4.69;63.58;102578.80;126375;1099;104035;-80
2021/11/16 01:11:13;;;;;;;33.70;16.03;;;;;;;4.68;63.29;102582.17;126258;1099;103916;-81
2021/11/16 01:13:49;;;;;;;39.80;18.33;;;;;;;4.60;63.70;102581.45;126347;1099;103915;-81
2021/11/16 01:16:22;;;;;;;34.80;17.50;;;;;;;4.59;63.57;102581.31;126345;1099;103989;-82
2021/11/16 01:18:56;;;;;;;31.10;16.40;;;;;;;4.65;63.89;102576.68;126372;1098;103968;-81
2021/11/16 01:21:27;;;;;;;34.85;17.10;;;;;;;4.70;63.37;102571.91;126285;1098;104008;-82
2021/11/16 01:24:02;;;;;;;34.03;17.37;;;;;;;4.70;63.64;102585.81;126301;1098;104152;-82
2021/11/16 01:26:35;;;;;;;33.90;16.63;;;;;;;4.69;63.89;102568.41;126350;1099;103935;-81
2021/11/16 01:29:07;;;;;;;35.77;18.40;;;;;;;4.63;63.81;102576.53;126346;1099;104021;-81
2021/11/16 01:31:39;;;;;;;32.33;16.37;;;;;;;4.62;63.80;102574.70;126323;1099;103948;-81
2021/11/16 01:34:11;;;;;;;33.23;17.37;;;;;;;4.59;63.76;102570.91;126354;1099;104031;-81
2021/11/16 01:36:43;;;;;;;30.47;16.00;;;;;;;4.56;63.90;102568.92;126337;1099;103918;-82
2021/11/16 01:39:15;;;;;;;33.80;16.67;;;;;;;4.51;63.78;102577.99;126312;1099;103947;-81
2021/11/16 01:41:47;;;;;;;34.10;17.33;;;;;;;4.49;63.88;102590.84;126113;1099;104155;-81
2021/11/16 01:44:18;;;;;;;38.03;17.83;;;;;;;4.47;63.34;102591.47;126363;1098;104420;-82
2021/11/16 01:46:50;;;;;;;32.37;16.90;;;;;;;4.45;63.48;102585.22;126350;1099;103928;-82
2021/11/16 01:49:22;;;;;;;33.87;17.00;;;;;;;4.39;63.75;102580.34;126290;1099;103992;-82
2021/11/16 01:51:54;;;;;;;29.77;15.87;;;;;;;4.42;63.76;102577.13;126180;1099;103942;-81
2021/11/16 01:54:25;;;;;;;34.30;17.27;;;;;;;4.45;63.87;102587.81;126308;1099;103954;-81
2021/11/16 01:57:03;;;;;;;34.87;17.47;;;;;;;4.45;63.77;102582.62;126363;1099;104021;-81
2021/11/16 01:59:36;;;;;;;34.30;16.17;;;;;;;4.45;63.68;102587.81;126375;1099;103935;-81
2021/11/16 02:02:08;;;;;;;36.77;17.37;;;;;;;4.40;63.24;102589.98;126242;1099;103954;-81
2021/11/16 02:04:41;;;;;;;31.33;16.47;;;;;;;4.37;63.76;102584.50;126362;1099;103916;-80
2021/11/16 02:07:13;;;;;;;35.20;17.83;;;;;;;4.44;63.44;102591.17;126349;1099;104044;-79
2021/11/16 02:09:44;;;;;;;33.07;17.50;;;;;;;4.44;63.73;102593.77;126346;1099;104391;-81
2021/11/16 02:12:16;;;;;;;30.77;16.17;;;;;;;4.46;63.90;102589.66;126260;1098;103941;-81
2021/11/16 02:14:48;;;;;;;32.47;16.87;;;;;;;4.46;63.27;102589.66;126318;1099;103922;-81
2021/11/16 02:17:19;;;;;;;33.03;16.70;;;;;;;4.47;63.80;102581.06;126366;1099;103925;-80
2021/11/16 02:19:52;;;;;;;33.00;16.33;;;;;;;4.47;63.41;102586.27;126317;1099;103961;-82
2021/11/16 02:22:24;;;;;;;33.63;17.33;;;;;;;4.42;63.80;102585.83;126330;1099;103915;-81
2021/11/16 02:24:56;;;;;;;35.13;17.03;;;;;;;4.40;63.82;102583.88;126354;1099;104318;-80
2021/11/16 02:27:27;;;;;;;35.20;17.83;;;;;;;4.38;63.72;102582.80;126253;1099;104073;-81
2021/11/16 02:29:59;;;;;;;31.87;15.70;;;;;;;4.36;63.78;102589.55;126353;1099;104325;-80
2021/11/16 02:32:31;;;;;;;33.67;16.93;;;;;;;4.34;63.60;102584.20;126288;1099;103913;-81
2021/11/16 02:35:03;;;;;;;33.23;16.37;;;;;;;4.32;63.30;102586.66;126339;1099;103925;-82
2021/11/16 02:37:35;;;;;;;29.63;15.07;;;;;;;4.31;63.66;102590.02;126324;1099;103925;-81
2021/11/16 02:40:08;;;;;;;28.80;14.53;;;;;;;4.29;63.15;102585.47;126314;1099;103916;-81
2021/11/16 02:42:40;;;;;;;35.70;17.63;;;;;;;4.24;63.46;102585.03;126346;1099;103935;-82
2021/11/16 02:45:14;;;;;;;31.70;17.03;;;;;;;4.24;63.70;102587.63;126307;1099;103916;-81
2021/11/16 02:47:47;;;;;;;30.88;16.57;;;;;;;4.24;62.89;102586.70;126396;1099;103922;-82
2021/11/16 02:50:20;;;;;;;32.47;16.07;;;;;;;4.25;63.45;102579.05;126372;1099;104037;-82
2021/11/16 02:52:52;;;;;;;28.90;16.23;;;;;;;4.24;63.78;102587.63;126273;1099;103980;-81
2021/11/16 02:55:24;;;;;;;34.87;17.00;;;;;;;4.23;63.39;102596.19;126376;1099;104005;-80
2021/11/16 02:57:57;;;;;;;33.47;16.37;;;;;;;4.28;63.23;102588.83;126336;1099;104349;-82
2021/11/16 03:00:28;;;;;;;30.30;15.23;;;;;;;4.27;63.29;102585.33;126342;1099;104727;-81
2021/11/16 03:03:01;;;;;;;32.27;16.20;;;;;;;4.21;63.05;102582.14;126305;1099;104101;-81
2021/11/16 03:05:34;;;;;;;31.90;16.40;;;;;;;4.21;63.39;102576.95;126351;1098;104123;-81
2021/11/16 03:08:17;;;;;;;37.05;16.75;;;;;;;4.24;63.79;102581.50;126393;1099;103958;-81
2021/11/16 03:10:50;;;;;;;32.10;16.63;;;;;;;4.27;63.36;102574.92;126362;1099;103977;-80
2021/11/16 03:13:23;;;;;;;30.67;15.87;;;;;;;4.29;63.72;102569.88;126337;1099;103906;-80
2021/11/16 03:15:55;;;;;;;32.67;16.93;;;;;;;4.32;63.44;102572.77;126294;1099;103909;-81
2021/11/16 03:18:27;;;;;;;32.07;16.57;;;;;;;4.31;63.13;102566.63;126348;1099;103960;-82
2021/11/16 03:20:59;;;;;;;31.70;17.13;;;;;;;4.40;63.39;102570.88;126256;1099;103971;-81
2021/11/16 03:23:31;;;;;;;31.60;16.47;;;;;;;4.40;63.23;102576.08;126322;1099;103955;-80
2021/11/16 03:26:03;;;;;;;30.33;15.40;;;;;;;4.36;63.51;102579.16;126251;1099;104050;-81
2021/11/16 03:28:40;;;;;;;31.63;15.20;;;;;;;4.37;63.11;102586.20;126361;1099;103917;-81
2021/11/16 03:36:46;;;;;;;35.10;17.20;;;;;;;4.32;63.15;102578.86;125117;1101;113768;-80
2021/11/16 03:39:18;;;;;;;36.00;15.60;;;;;;;4.35;63.38;102582.51;125215;1102;104468;-81
2021/11/16 03:41:50;;;;;;;31.03;15.73;;;;;;;4.37;63.51;102570.59;125167;1102;103922;-81
2021/11/16 03:44:26;;;;;;;30.10;14.85;;;;;;;4.37;62.77;102576.70;125192;1102;103910;-81
2021/11/16 03:50:27;;;;;;;29.90;14.23;;;;;;;4.41;63.15;102571.03;125184;1102;103941;-81
2021/11/16 03:53:01;;;;;;;33.40;16.20;;;;;;;4.32;62.49;102568.47;125262;1102;104021;-80
2021/11/16 03:55:35;;;;;;;28.02;14.45;;;;;;;4.31;63.25;102569.23;125220;1102;104028;-80
2021/11/16 03:58:07;;;;;;;30.77;14.70;;;;;;;4.29;63.16;102564.67;125215;1102;104066;-81
2021/11/16 04:00:43;;;;;;;26.70;12.93;;;;;;;4.28;63.25;102566.34;125270;1102;104050;-81
2021/11/16 04:03:16;;;;;;;27.53;13.87;;;;;;;4.25;62.28;102570.34;125236;1102;103948;-80
2021/11/16 04:05:48;;;;;;;29.67;14.90;;;;;;;4.25;63.50;102579.05;125217;1102;104018;-80
2021/11/16 04:08:20;;;;;;;29.50;13.60;;;;;;;4.25;63.36;102584.24;125165;1102;103967;-81
2021/11/16 04:10:54;;;;;;;28.47;13.50;;;;;;;4.23;62.74;102584.89;125239;1101;104021;-81
2021/11/16 04:13:28;;;;;;;27.90;13.97;;;;;;;4.24;62.53;102585.03;125159;1102;104018;-81
2021/11/16 04:16:02;;;;;;;26.85;12.82;;;;;;;4.24;62.88;102579.84;125275;1102;105386;-81
2021/11/16 04:18:36;;;;;;;28.12;13.03;;;;;;;4.23;63.36;102585.79;125239;1102;103923;-81
2021/11/16 04:21:09;;;;;;;29.30;12.73;;;;;;;4.23;62.36;102590.98;125230;1102;103996;-81
2021/11/16 04:23:43;;;;;;;26.60;12.93;;;;;;;4.25;62.24;102580.73;125246;1102;103955;-81
2021/11/16 04:26:15;;;;;;;27.63;12.57;;;;;;;4.26;62.88;102575.69;125231;1102;104066;-81
2021/11/16 04:28:49;;;;;;;28.93;11.73;;;;;;;4.27;62.43;102582.72;125199;1101;111969;-80
2021/11/16 04:31:21;;;;;;;23.93;11.50;;;;;;;4.27;62.70;102563.59;125215;1102;103967;-80
2021/11/16 04:33:53;;;;;;;28.23;12.10;;;;;;;4.23;62.41;102569.30;125230;1101;103922;-80
2021/11/16 04:36:28;;;;;;;26.17;11.80;;;;;;;4.23;62.05;102570.20;125163;1102;104114;-81
2021/11/16 04:39:06;;;;;;;25.93;12.23;;;;;;;4.24;62.55;102582.44;125187;1102;103942;-81
2021/11/16 04:41:38;;;;;;;24.00;10.45;;;;;;;4.22;62.19;102563.16;125228;1102;103960;-82
2021/11/16 04:44:11;;;;;;;25.17;12.10;;;;;;;4.18;61.85;102570.55;125199;1102;103931;-80
2021/11/16 04:46:45;;;;;;;28.17;12.93;;;;;;;4.18;62.75;102576.66;125262;1102;103925;-81
2021/11/16 04:49:23;;;;;;;24.73;11.20;;;;;;;4.22;62.32;102581.35;125161;1102;107918;-80
2021/11/16 04:52:07;;;;;;;25.43;11.87;;;;;;;4.26;62.55;102580.88;125208;1102;104037;-82
2021/11/16 05:02:56;;;;;;;26.40;12.15;;;;;;;4.23;62.67;102590.09;125178;1102;104060;-82
2021/11/16 05:05:28;;;;;;;25.67;11.50;;;;;;;4.22;62.46;102594.34;125176;1102;103925;-82
2021/11/16 05:08:01;;;;;;;26.00;12.07;;;;;;;4.21;62.51;102589.94;125203;1102;103951;-80
2021/11/16 05:10:33;;;;;;;27.07;12.05;;;;;;;4.26;62.25;102583.48;125191;1102;103932;-81
2021/11/16 05:13:05;;;;;;;23.10;10.70;;;;;;;4.28;61.55;102588.83;125233;1102;104611;-81
2021/11/16 05:15:40;;;;;;;24.37;11.43;;;;;;;4.24;62.48;102603.23;125125;1102;104383;-81
2021/11/16 05:18:12;;;;;;;28.03;12.17;;;;;;;4.26;62.61;102596.48;125120;1102;104230;-82
2021/11/16 05:20:43;;;;;;;22.00;10.37;;;;;;;4.27;62.25;102600.92;125203;1102;103957;-81
2021/11/16 05:24:52;;;;;;;26.63;12.10;;;;;;;4.23;61.44;102598.78;125328;1101;104195;-82
2021/11/16 05:27:22;;;;;;;25.77;12.07;;;;;;;4.21;61.84;102602.03;125176;1102;104143;-83
2021/11/16 05:29:53;;;;;;;24.50;11.93;;;;;;;4.20;62.18;102601.09;125119;1102;104185;-82
2021/11/16 05:32:24;;;;;;;26.07;11.93;;;;;;;4.19;61.58;102603.55;125268;1102;104156;-83
2021/11/16 05:34:54;;;;;;;25.17;12.57;;;;;;;4.20;62.29;102608.89;124863;1102;104402;-82
2021/11/16 05:37:25;;;;;;;24.33;12.07;;;;;;;4.16;61.64;102613.65;125182;1102;104149;-82
2021/11/16 05:39:56;;;;;;;26.67;12.47;;;;;;;4.09;61.96;102615.66;125214;1102;104178;-82
2021/11/16 05:42:27;;;;;;;29.63;12.40;;;;;;;4.07;61.45;102617.20;125235;1102;104166;-82
2021/11/16 05:45:03;;;;;;;28.05;13.25;;;;;;;3.94;61.60;102617.72;125145;1102;104157;-81
2021/11/16 05:47:37;;;;;;;28.33;12.93;;;;;;;3.94;61.36;102629.77;125032;1102;104200;-82
2021/11/16 05:50:10;;;;;;;24.80;10.77;;;;;;;3.90;61.80;102625.97;125239;1102;104152;-82
2021/11/16 05:52:41;;;;;;;28.07;11.77;;;;;;;3.84;61.63;102632.27;125218;1102;104146;-82
2021/11/16 05:55:12;;;;;;;31.03;12.63;;;;;;;3.85;61.66;102631.48;125219;1102;104152;-81
2021/11/16 05:57:48;;;;;;;25.13;11.30;;;;;;;3.87;61.49;102636.06;125166;1102;104195;-82
2021/11/16 06:00:20;;;;;;;27.33;12.00;;;;;;;3.86;61.66;102631.62;125185;1102;104149;-80
2021/11/16 06:02:52;;;;;;;23.27;11.60;;;;;;;3.85;61.27;102636.67;125255;1102;104252;-81
2021/11/16 06:05:23;;;;;;;27.63;11.77;;;;;;;3.84;62.03;102638.36;125156;1103;104201;-81
2021/11/16 06:07:53;;;;;;;27.17;12.43;;;;;;;3.87;61.69;102637.77;125222;1102;104162;-81
2021/11/16 06:10:24;;;;;;;26.87;11.93;;;;;;;3.91;61.52;102637.27;125257;1102;104143;-80
2021/11/16 06:12:55;;;;;;;28.00;13.00;;;;;;;3.93;61.25;102638.35;125215;1102;104198;-81
2021/11/16 06:15:26;;;;;;;23.87;10.20;;;;;;;3.94;61.05;102638.50;125096;1102;104246;-81
2021/11/16 06:17:57;;;;;;;25.93;11.37;;;;;;;3.92;61.11;102629.63;125195;1102;104220;-83
2021/11/16 06:20:33;;;;;;;26.77;11.80;;;;;;;3.91;61.45;102632.07;125146;1102;104146;-81
2021/11/16 06:23:11;;;;;;;28.23;11.83;;;;;;;3.88;61.38;102631.77;125013;1106;104615;-81
2021/11/16 06:25:42;;;;;;;24.00;11.37;;;;;;;3.88;60.69;102629.17;124854;1103;104347;-80
2021/11/16 06:28:13;;;;;;;23.37;11.67;;;;;;;3.88;61.32;102624.92;124910;1102;104300;-80
2021/11/16 06:30:44;;;;;;;26.63;11.30;;;;;;;3.92;60.87;102619.23;124939;1106;104402;-80
2021/11/16 06:33:19;;;;;;;27.30;11.40;;;;;;;3.94;61.00;102622.92;124984;1102;104147;-81
2021/11/16 06:35:50;;;;;;;28.40;12.40;;;;;;;3.99;60.43;102625.02;124919;1102;104345;-82
2021/11/16 06:38:26;;;;;;;28.57;12.53;;;;;;;4.00;60.85;102632.05;124919;1105;104302;-82
2021/11/16 06:41:02;;;;;;;25.20;11.13;;;;;;;4.03;60.14;102633.26;125006;1105;104238;-80
2021/11/16 06:43:36;;;;;;;25.87;11.17;;;;;;;4.12;61.38;102626.34;125098;1102;104155;-82
2021/11/16 06:46:11;;;;;;;30.05;11.90;;;;;;;4.23;60.63;102616.98;125066;1102;104150;-81
2021/11/16 06:48:44;;;;;;;23.85;11.30;;;;;;;4.31;60.37;102631.61;124986;1102;104248;-82
2021/11/16 06:51:19;;;;;;;25.00;11.60;;;;;;;4.37;60.00;102626.09;125026;1103;104412;-83
2021/11/16 06:53:51;;;;;;;27.97;11.20;;;;;;;4.44;60.72;102628.51;125074;1102;104246;-82
2021/11/16 06:56:28;;;;;;;24.63;11.40;;;;;;;4.44;60.33;102617.17;124849;1102;104264;-78
2021/11/16 06:59:07;;;;;;;25.77;11.93;;;;;;;4.46;59.34;102623.45;124893;1102;104893;-79
2021/11/16 07:01:39;;;;;;;27.23;12.30;;;;;;;4.52;60.08;102611.03;125037;1102;104261;-80
2021/11/16 07:04:11;;;;;;;25.50;11.00;;;;;;;4.57;59.87;102611.47;125046;1102;104198;-79
2021/11/16 07:06:55;;;;;;;25.63;11.73;;;;;;;4.54;60.14;102608.58;125175;1102;104262;-80
2021/11/16 07:09:31;;;;;;;27.53;12.07;;;;;;;4.49;59.97;102608.14;125081;1102;104197;-81
2021/11/16 07:12:11;;;;;;;27.77;12.13;;;;;;;4.49;60.05;102609.05;125018;1102;104829;-81
2021/11/16 07:14:42;;;;;;;25.57;11.90;;;;;;;4.58;60.00;102598.61;125135;1102;104173;-79
2021/11/16 07:17:17;;;;;;;27.63;12.37;;;;;;;4.64;59.90;102600.84;125047;1102;104236;-81
2021/11/16 07:19:55;;;;;;;28.47;12.27;;;;;;;4.61;60.02;102601.49;125114;1102;104611;-80
2021/11/16 07:22:28;;;;;;;27.83;13.27;;;;;;;4.52;59.97;102589.30;124976;1102;104220;-79
2021/11/16 07:25:15;;;;;;;31.17;13.40;;;;;;;4.47;59.78;102596.66;125138;1102;104704;-81
2021/11/16 07:27:48;;;;;;;29.23;12.43;;;;;;;4.51;60.04;102596.19;124975;1102;102474;-82
2021/11/16 07:30:25;;;;;;;30.33;12.80;;;;;;;4.58;60.52;102587.27;125048;1102;104416;-80
2021/11/16 07:33:06;;;;;;;26.23;12.17;;;;;;;4.63;59.90;102586.94;125252;1102;104143;-79
2021/11/16 07:35:49;;;;;;;30.70;13.30;;;;;;;4.66;59.59;102592.42;124996;1102;104146;-80
2021/11/16 07:38:24;;;;;;;28.77;12.73;;;;;;;4.67;59.56;102594.27;125079;1102;104149;-80
2021/11/16 07:41:34;;;;;;;26.67;12.63;;;;;;;4.73;59.68;102595.59;124902;1102;104156;-80
2021/11/16 07:44:28;;;;;;;27.17;13.37;;;;;;;4.77;59.88;102592.48;124806;1102;104313;-82
2021/11/16 07:50:02;;;;;;;26.80;12.67;;;;;;;4.95;59.55;102603.69;125177;1102;104230;-80
2021/11/16 07:52:38;;;;;;;27.20;12.77;;;;;;;4.99;59.26;102601.51;125110;1102;104191;-80
2021/11/16 07:55:36;;;;;;;28.33;13.10;;;;;;;5.12;59.44;102592.23;124846;1102;104340;-80
2021/11/16 07:58:31;;;;;;;33.93;14.43;;;;;;;5.21;59.83;102593.06;125118;1102;104191;-81
2021/11/16 08:01:18;;;;;;;29.90;13.70;;;;;;;5.19;59.14;102592.02;124964;1101;104178;-83
2021/11/16 08:04:07;;;;;;;28.60;13.80;;;;;;;5.26;58.87;102596.09;124919;1105;105787;-80
2021/11/16 08:07:05;;;;;;;32.03;13.57;;;;;;;5.37;59.34;102596.27;124932;1105;104364;-82
2021/11/16 08:09:46;;;;;;;28.23;14.30;;;;;;;5.43;58.89;102592.41;125238;1102;118080;-81
2021/11/16 08:12:32;;;;;;;27.50;13.43;;;;;;;5.47;58.93;102586.67;125220;1102;104834;-80
2021/11/16 08:15:12;;;;;;;29.00;13.90;;;;;;;5.57;59.27;102586.73;125145;1102;104207;-81
2021/11/16 08:17:46;;;;;;;31.60;14.30;;;;;;;5.69;59.00;102584.33;125166;1102;105385;-80
2021/11/16 08:20:23;;;;;;;31.90;14.77;;;;;;;5.77;58.71;102588.51;125273;1102;104639;-81
2021/11/16 08:23:07;;;;;;;41.90;14.87;;;;;;;5.74;58.01;102583.93;125334;1102;104303;-82
2021/11/16 08:25:47;;;;;;;32.87;14.70;;;;;;;5.75;58.24;102585.77;125243;1102;104223;-80
2021/11/16 08:28:22;;;;;;;32.10;14.97;;;;;;;5.80;59.14;102582.63;125144;1100;104184;-80
2021/11/16 08:30:56;;;;;;;28.37;13.73;;;;;;;5.86;58.51;102575.36;125088;1102;104232;-79
2021/11/16 08:33:56;;;;;;;;;;;;;;;;;;;;;
2021/11/16 08:36:54;;;;;;;27.93;14.33;;;;;;;5.95;58.49;102570.95;125067;1102;104601;-82
2021/11/16 08:39:43;;;;;;;30.97;13.83;;;;;;;6.02;58.24;102575.97;125089;1102;102877;-81
2021/11/16 08:42:23;;;;;;;31.60;14.83;;;;;;;6.11;58.47;102568.95;125234;1102;104162;-79
2021/11/16 08:45:04;;;;;;;31.93;14.50;;;;;;;6.18;57.89;102570.39;125301;1102;104264;-79
2021/11/16 08:47:43;;;;;;;29.03;14.37;;;;;;;6.18;58.14;102565.17;125172;1102;104233;-81
2021/11/16 08:50:37;;;;;;;26.60;13.30;;;;;;;6.25;58.17;102561.43;125172;1102;118454;-81
2021/11/16 08:53:39;;;;;;;31.87;14.40;;;;;;;6.20;57.40;102560.09;125139;1102;104184;-82
2021/11/16 08:56:28;;;;;;;30.73;14.23;;;;;;;6.17;57.81;102558.16;125291;1102;104175;-82
2021/11/16 08:59:16;;;;;;;31.57;14.83;;;;;;;6.14;57.40;102559.56;125022;1102;104383;-79
2021/11/16 09:02:05;;;;;;;30.43;14.53;;;;;;;6.11;57.83;102550.70;125191;1103;102934;-80
2021/11/16 09:04:45;;;;;;;30.50;14.40;;;;;;;6.19;58.06;102548.77;125186;1102;104223;-81
2021/11/16 09:07:32;;;;;;;29.03;14.60;;;;;;;6.27;57.67;102544.21;125436;1102;104146;-80
2021/11/16 09:10:10;;;;;;;28.53;14.17;;;;;;;6.37;57.78;102525.04;126260;1098;104220;-81
2021/11/16 09:12:50;;;;;;;29.67;14.83;;;;;;;6.47;57.85;102525.95;126187;1099;104245;-82
2021/11/16 09:15:41;;;;;;;28.20;14.17;;;;;;;6.54;57.35;102529.08;126237;1099;104245;-80
2021/11/16 09:18:18;;;;;;;29.73;15.63;;;;;;;6.54;57.34;102523.86;126063;1099;104319;-81
2021/11/16 09:21:01;;;;;;;31.73;14.90;;;;;;;6.50;56.74;102520.09;126236;1098;104283;-82
2021/11/16 09:23:49;;;;;;;30.57;14.53;;;;;;;6.47;57.49;102506.80;125439;1099;104229;-80
2021/11/16 09:26:31;;;;;;;29.37;14.10;;;;;;;6.56;57.48;102506.64;126239;1099;104169;-81
2021/11/16 09:29:05;;;;;;;28.23;15.07;;;;;;;6.61;57.26;102503.64;126143;1099;104160;-81
2021/11/16 09:31:41;;;;;;;26.43;14.07;;;;;;;6.72;57.53;102499.33;126223;1099;104149;-80
2021/11/16 09:34:31;;;;;;;30.80;15.80;;;;;;;6.82;57.22;102494.09;126219;1099;104149;-81
2021/11/16 09:37:10;;;;;;;28.83;14.77;;;;;;;6.93;56.71;102494.95;125362;1099;104171;-81
2021/11/16 09:40:03;;;;;;;30.60;14.90;;;;;;;7.08;57.26;102495.31;125421;1099;104258;-80
2021/11/16 09:42:46;;;;;;;29.90;14.63;;;;;;;7.17;57.27;102493.45;126170;1099;104294;-78
2021/11/16 09:45:34;;;;;;;30.27;14.23;;;;;;;7.17;56.75;102493.45;125460;1099;104239;-81
2021/11/16 09:48:06;;;;;;;29.23;13.83;;;;;;;7.22;56.84;102485.98;125398;1099;104286;-81
2021/11/16 09:50:41;;;;;;;29.55;14.85;;;;;;;7.13;56.15;102480.92;126129;1099;104268;-80
2021/11/16 09:53:20;;;;;;;29.70;14.17;;;;;;;7.08;56.12;102481.36;126194;1099;104153;-80
2021/11/16 09:55:56;;;;;;;28.60;14.17;;;;;;;7.09;56.43;102478.87;126137;1099;104149;-83
2021/11/16 09:58:33;;;;;;;26.80;14.17;;;;;;;7.17;56.66;102471.66;126071;1099;104147;-80
2021/11/16 10:01:20;;;;;;;27.13;13.70;;;;;;;7.23;56.26;102469.55;126080;1099;104296;-82
2021/11/16 10:04:23;;;;;;;27.93;14.03;;;;;;;7.31;56.44;102460.62;125354;1099;103344;-79
2021/11/16 10:06:58;;;;;;;28.30;13.73;;;;;;;7.33;54.17;102450.30;125361;1099;104214;-78
2021/11/16 10:09:32;;;;;;;31.30;15.33;;;;;;;7.11;54.94;102460.72;125351;1099;104159;-79
2021/11/16 10:12:07;;;;;;;29.37;14.27;;;;;;;7.01;55.81;102452.14;126028;1098;118990;-79
2021/11/16 10:14:41;;;;;;;26.67;13.73;;;;;;;7.05;56.05;102458.51;126198;1099;104159;-81
2021/11/16 10:17:13;;;;;;;;;;;;;;;6.98;52.83;102449.28;126261;1098;104242;-80
2021/11/16 10:19:47;;;;;;;28.93;15.07;;;;;;;7.06;55.48;102460.34;126188;1099;104150;-82
2021/11/16 10:22:19;;;;;;;28.63;13.90;;;;;;;6.99;54.96;102452.79;125446;1099;104216;-80
2021/11/16 10:25:13;;;;;;;26.57;13.93;;;;;;;6.96;55.33;102445.61;126295;1098;104149;-81
2021/11/16 10:28:06;;;;;;;;;;;;;;;;;;;;;
2021/11/16 10:31:01;;;;;;;25.40;12.73;;;;;;;7.17;55.79;102425.56;125488;1099;104146;-81
2021/11/16 10:33:39;;;;;;;29.00;13.30;;;;;;;7.14;54.25;102430.54;126283;1099;104300;-81
2021/11/16 10:36:20;;;;;;;25.80;13.20;;;;;;;7.13;54.40;102433.92;125300;1102;104380;-83
2021/11/16 10:39:02;;;;;;;31.37;14.17;;;;;;;7.15;54.49;102437.59;125186;1099;104274;-82
2021/11/16 10:41:38;;;;;;;28.20;14.50;;;;;;;7.09;54.34;102431.88;125997;1099;104205;-81
2021/11/16 10:44:21;;;;;;;26.90;14.13;;;;;;;7.10;54.64;102430.17;125317;1099;104201;-81
2021/11/16 10:47:03;;;;;;;24.65;13.00;;;;;;;7.10;54.95;102420.63;125392;1099;104239;-82
2021/11/16 10:50:17;;;;;;;;;;;;;;;;;;;;;
2021/11/16 10:53:28;;;;;;;25.17;12.17;;;;;;;7.16;54.95;102399.33;125088;1099;119015;-81
2021/11/16 10:56:08;;;;;;;26.80;11.80;;;;;;;7.18;54.50;102397.74;125146;1099;104592;-80
2021/11/16 10:58:44;;;;;;;27.17;12.23;;;;;;;7.25;54.04;102401.78;125275;1099;102637;-80
2021/11/16 11:01:17;;;;;;;26.03;11.80;;;;;;;7.19;52.88;102392.64;125186;1099;104149;-81
2021/11/16 11:03:57;;;;;;;26.20;12.70;;;;;;;7.14;54.02;102404.43;125192;1099;104143;-82
2021/11/16 11:06:39;;;;;;;28.27;13.10;;;;;;;7.14;53.90;102399.21;125074;1099;104275;-81
2021/11/16 11:09:18;;;;;;;25.20;12.00;;;;;;;7.17;52.79;102388.11;125152;1102;104396;-81
2021/11/16 11:11:55;;;;;;;26.23;12.67;;;;;;;7.20;53.91;102389.26;125146;1099;104379;-83
2021/11/16 11:14:36;;;;;;;26.10;12.63;;;;;;;7.18;53.93;102390.84;125192;1099;104176;-79
2021/11/16 11:17:11;;;;;;;25.93;11.83;;;;;;;7.16;53.68;102392.40;125132;1099;104207;-80
2021/11/16 11:19:49;;;;;;;25.73;12.70;;;;;;;7.16;53.73;102381.95;126076;1099;104216;-82
2021/11/16 11:22:31;;;;;;;25.77;11.40;;;;;;;7.14;53.32;102374.81;125692;1099;102739;-83
2021/11/16 11:25:12;;;;;;;28.43;12.50;;;;;;;7.03;52.21;102379.17;125878;1099;104302;-84
2021/11/16 11:27:59;;;;;;;26.03;12.73;;;;;;;6.94;53.21;102373.22;125185;1099;102693;-85
2021/11/16 11:30:40;;;;;;;25.27;12.07;;;;;;;6.84;52.61;102374.19;126048;1098;104178;-83
2021/11/16 11:33:14;;;;;;;25.17;11.43;;;;;;;6.83;52.54;102370.64;126036;1099;104239;-84
2021/11/16 11:35:52;;;;;;;25.97;11.57;;;;;;;6.84;52.98;102367.25;126017;1099;104130;-83
2021/11/16 11:38:36;;;;;;;25.27;10.70;;;;;;;6.79;52.29;102365.98;126210;1099;104185;-82
2021/11/16 11:41:14;;;;;;;23.53;11.20;;;;;;;6.72;51.65;102366.27;126218;1099;104271;-82
2021/11/16 11:44:18;;;;;;;23.63;10.63;;;;;;;6.69;51.97;102358.19;126195;1099;104252;-84
2021/11/16 11:47:11;;;;;;;25.33;10.27;;;;;;;6.69;52.65;102347.75;125415;1099;104418;-83
2021/11/16 11:49:46;;;;;;;22.40;10.17;;;;;;;6.74;52.72;102355.95;125308;1099;104114;-83
2021/11/16 11:52:19;;;;;;;25.20;10.45;;;;;;;6.75;52.27;102345.64;126066;1098;105506;-83
2021/11/16 11:54:55;;;;;;;23.83;9.50;;;;;;;6.78;52.33;102345.88;125993;1099;104226;-81
2021/11/16 11:57:34;;;;;;;20.85;8.65;;;;;;;6.73;49.41;102346.29;126056;1099;104217;-84
2021/11/16 12:00:22;;;;;;;21.63;9.23;;;;;;;6.68;51.59;102335.48;125999;1099;104143;-83
2021/11/16 12:03:23;;;;;;;19.53;8.60;;;;;;;6.69;52.08;102333.80;126084;1098;104392;-82
2021/11/16 12:06:00;;;;;;;24.67;9.43;;;;;;;6.71;51.74;102334.83;126047;1099;104271;-82
2021/11/16 12:08:35;;;;;;;21.60;9.33;;;;;;;6.72;51.82;102327.12;125427;1099;104595;-81
2021/11/16 12:11:16;;;;;;;18.97;8.17;;;;;;;6.69;50.98;102326.88;126167;1099;104139;-82
2021/11/16 12:13:54;;;;;;;20.10;9.30;;;;;;;6.68;51.85;102314.61;125229;1100;104149;-83